createdAt,value
2022-12-05T00:00:56.283Z,99735.27
2022-12-05T00:02:00.521Z,99740.67
2022-12-05T00:03:04.721Z,99738.88
2022-12-05T00:04:08.991Z,99737.2
2022-12-05T00:05:13.296Z,99733.69
2022-12-05T00:06:17.375Z,99742.71
2022-12-05T00:07:21.469Z,99735.56
2022-12-05T00:08:25.527Z,99732.99
2022-12-05T00:09:29.600Z,99726.42
2022-12-05T00:10:33.675Z,99729.56
2022-12-05T00:11:37.849Z,99728.64
2022-12-05T00:12:41.921Z,99713.02
2022-12-05T00:13:45.994Z,99725.23
2022-12-05T00:14:50.096Z,99712.2
2022-12-05T00:15:54.158Z,99719.87
2022-12-05T00:16:58.364Z,99709.29
2022-12-05T00:18:02.547Z,99718.13
2022-12-05T00:19:06.617Z,99699.68
2022-12-05T00:20:10.766Z,99711.09
2022-12-05T00:21:14.834Z,99716.03
2022-12-05T00:22:18.919Z,99713.88
2022-12-05T00:23:22.971Z,99721.92
2022-12-05T00:24:27.043Z,99714.42
2022-12-05T00:25:31.138Z,99712.53
2022-12-05T00:26:35.213Z,99707.72
2022-12-05T00:27:39.264Z,99711.89
2022-12-05T00:28:43.348Z,99710.11
2022-12-05T00:29:47.554Z,99708
2022-12-05T00:30:51.641Z,99710.22
2022-12-05T00:31:55.806Z,99720.83
2022-12-05T00:32:59.984Z,99716.09
2022-12-05T00:34:04.055Z,99726.41
2022-12-05T00:35:08.155Z,99712.15
2022-12-05T00:36:12.256Z,99715.34
2022-12-05T00:37:16.318Z,99707.2
2022-12-05T00:38:20.400Z,99707.31
2022-12-05T00:39:24.465Z,99715.34
2022-12-05T00:40:28.520Z,99700.97
2022-12-05T00:41:32.615Z,99698.52
2022-12-05T00:42:36.680Z,99702.75
2022-12-05T00:43:40.773Z,99699.04
2022-12-05T00:44:44.858Z,99694.89
2022-12-05T00:45:49.091Z,99700.97
2022-12-05T00:46:53.216Z,99700.56
2022-12-05T00:47:57.307Z,99697.88
2022-12-05T00:49:01.383Z,99695.72
2022-12-05T00:50:05.439Z,99694.79
2022-12-05T00:51:09.505Z,99697.16
2022-12-05T00:52:13.599Z,99691.06
2022-12-05T00:53:17.688Z,99686.39
2022-12-05T00:54:21.784Z,99693.63
2022-12-05T00:55:25.850Z,99692.8
2022-12-05T00:56:29.907Z,99690.19
2022-12-05T00:57:33.995Z,99689.3
2022-12-05T00:58:38.079Z,99685.36
2022-12-05T00:59:42.148Z,99683.13
2022-12-05T01:00:46.302Z,99679.65
2022-12-05T01:01:50.687Z,99681.73
2022-12-05T01:02:55.097Z,99688.48
2022-12-05T01:03:59.243Z,99687.33
2022-12-05T01:05:03.328Z,99687.4
2022-12-05T01:06:07.450Z,99688.44
2022-12-05T01:07:11.530Z,99688.44
2022-12-05T01:08:15.803Z,99689.36
2022-12-05T01:09:20.082Z,99681.69
2022-12-05T01:10:24.175Z,99696.96
2022-12-05T01:11:28.266Z,99693.16
2022-12-05T01:12:32.315Z,99686.45
2022-12-05T01:13:36.382Z,99688.2
2022-12-05T01:14:40.455Z,99674.86
2022-12-05T01:15:44.524Z,99673.94
2022-12-05T01:16:48.848Z,99674.47
2022-12-05T01:17:53.022Z,99673.19
2022-12-05T01:18:57.093Z,99675.11
2022-12-05T01:20:01.401Z,99671.09
2022-12-05T01:21:05.476Z,99667.54
2022-12-05T01:22:09.637Z,99668.11
2022-12-05T01:23:13.708Z,99660.13
2022-12-05T01:24:17.772Z,99662
2022-12-05T01:25:21.838Z,99673.95
2022-12-05T01:26:25.930Z,99672.3
2022-12-05T01:27:30.037Z,99674.24
2022-12-05T01:28:34.253Z,99674.86
2022-12-05T01:29:38.429Z,99674.42
2022-12-05T01:30:42.501Z,99672.03
2022-12-05T01:31:46.791Z,99673.55
2022-12-05T01:32:51.074Z,99676.45
2022-12-05T01:33:55.149Z,99677.5
2022-12-05T01:34:59.216Z,99671.64
2022-12-05T01:36:03.309Z,99677.16
2022-12-05T01:37:07.453Z,99671.91
2022-12-05T01:38:11.547Z,99683.03
2022-12-05T01:39:15.658Z,99679.53
2022-12-05T01:40:19.732Z,99675.59
2022-12-05T01:41:23.803Z,99683.22
2022-12-05T01:42:27.876Z,99687.23
2022-12-05T01:43:31.974Z,99689.84
2022-12-05T01:44:36.040Z,99686.82
2022-12-05T01:45:40.238Z,99683.77
2022-12-05T01:46:44.449Z,99682.13
2022-12-05T01:47:48.509Z,99684.22
2022-12-05T01:48:52.579Z,99679.27
2022-12-05T01:49:57.708Z,99679.27
2022-12-05T01:51:02.434Z,99668.55
2022-12-05T01:52:06.604Z,99665.02
2022-12-05T01:53:10.669Z,99664.48
2022-12-05T01:54:14.775Z,99666.83
2022-12-05T01:55:18.852Z,99663.97
2022-12-05T01:56:22.932Z,99672.11
2022-12-05T01:57:26.994Z,99667.69
2022-12-05T01:58:31.073Z,99671.55
2022-12-05T01:59:35.159Z,99668.63
2022-12-05T02:00:39.238Z,99668.22
2022-12-05T02:01:43.437Z,99677.55
2022-12-05T02:02:47.794Z,99675.48
2022-12-05T02:03:52.031Z,99669.27
2022-12-05T02:04:56.104Z,99673.81
2022-12-05T02:06:00.179Z,99665.47
2022-12-05T02:07:04.326Z,99669.48
2022-12-05T02:08:08.602Z,99673.91
2022-12-05T02:09:12.911Z,99671.72
2022-12-05T02:10:17.006Z,99671.01
2022-12-05T02:11:21.160Z,99669.66
2022-12-05T02:12:25.291Z,99665.59
2022-12-05T02:13:29.360Z,99671.7
2022-12-05T02:14:33.412Z,99670.19
2022-12-05T02:15:37.481Z,99659.72
2022-12-05T02:16:41.730Z,99659.91
2022-12-05T02:17:46.024Z,99661.41
2022-12-05T02:18:50.103Z,99658.67
2022-12-05T02:19:54.158Z,99660.66
2022-12-05T02:20:58.629Z,99650.81
2022-12-05T02:22:02.709Z,99651.74
2022-12-05T02:23:06.786Z,99659.91
2022-12-05T02:24:10.873Z,99661.86
2022-12-05T02:25:14.959Z,99651.98
2022-12-05T02:26:19.055Z,99644.87
2022-12-05T02:27:23.150Z,99652.08
2022-12-05T02:28:27.275Z,99664.84
2022-12-05T02:29:31.367Z,99653.42
2022-12-05T02:30:35.586Z,99642.24
2022-12-05T02:31:39.800Z,99641.16
2022-12-05T02:32:43.948Z,99659.27
2022-12-05T02:33:47.997Z,99654.83
2022-12-05T02:34:52.048Z,99644.69
2022-12-05T02:35:56.105Z,99641.83
2022-12-05T02:37:00.207Z,99649.25
2022-12-05T02:38:04.291Z,99645.17
2022-12-05T02:39:08.340Z,99646.85
2022-12-05T02:40:12.389Z,99653.19
2022-12-05T02:41:16.446Z,99642.09
2022-12-05T02:42:20.529Z,99646.11
2022-12-05T02:43:24.597Z,99656.45
2022-12-05T02:44:28.863Z,99657.05
2022-12-05T02:45:33.043Z,99652.95
2022-12-05T02:46:37.226Z,99666.42
2022-12-05T02:47:41.336Z,99664.44
2022-12-05T02:48:45.394Z,99663.52
2022-12-05T02:49:49.441Z,99659.49
2022-12-05T02:50:53.510Z,99664.55
2022-12-05T02:51:57.568Z,99673.74
2022-12-05T02:53:01.640Z,99666.81
2022-12-05T02:54:05.747Z,99665.47
2022-12-05T02:55:09.813Z,99664.73
2022-12-05T02:56:13.892Z,99646.67
2022-12-05T02:57:17.948Z,99641.03
2022-12-05T02:58:22.029Z,99639.57
2022-12-05T02:59:26.102Z,99627.18
2022-12-05T03:00:30.156Z,99630.38
2022-12-05T03:01:34.392Z,99642.89
2022-12-05T03:02:38.622Z,99627.82
2022-12-05T03:03:42.705Z,99640.8
2022-12-05T03:04:46.884Z,99638.72
2022-12-05T03:05:51.003Z,99651.39
2022-12-05T03:06:55.079Z,99647.6
2022-12-05T03:07:59.305Z,99646.27
2022-12-05T03:09:03.589Z,99643.66
2022-12-05T03:10:07.669Z,99650.33
2022-12-05T03:11:11.733Z,99648.14
2022-12-05T03:12:15.797Z,99657.46
2022-12-05T03:13:19.852Z,99643.02
2022-12-05T03:14:23.934Z,99649.06
2022-12-05T03:15:28.012Z,99651.45
2022-12-05T03:16:32.208Z,99652.03
2022-12-05T03:17:36.446Z,99654.94
2022-12-05T03:18:40.521Z,99643.94
2022-12-05T03:19:44.613Z,99650.27
2022-12-05T03:20:48.674Z,99647.83
2022-12-05T03:21:52.738Z,99645.27
2022-12-05T03:22:56.796Z,99640.43
2022-12-05T03:24:00.845Z,99645.22
2022-12-05T03:25:04.947Z,99646.19
2022-12-05T03:26:09.038Z,99643.44
2022-12-05T03:27:13.096Z,99636.25
2022-12-05T03:28:17.163Z,99646.11
2022-12-05T03:29:21.240Z,99640.8
2022-12-05T03:30:25.454Z,99643.19
2022-12-05T03:31:29.616Z,99636.67
2022-12-05T03:32:33.674Z,99644.91
2022-12-05T03:33:37.760Z,99650.97
2022-12-05T03:34:41.838Z,99648
2022-12-05T03:35:45.904Z,99650.2
2022-12-05T03:36:49.974Z,99666.11
2022-12-05T03:37:54.027Z,99671.92
2022-12-05T03:38:58.077Z,99670.18
2022-12-05T03:40:02.166Z,99666.62
2022-12-05T03:41:06.220Z,99662.52
2022-12-05T03:42:10.268Z,99665.85
2022-12-05T03:43:14.319Z,99659.96
2022-12-05T03:44:18.368Z,99667.01
2022-12-05T03:45:22.433Z,99656.2
2022-12-05T03:46:26.689Z,99667.61
2022-12-05T03:47:30.996Z,99667.47
2022-12-05T03:48:35.072Z,99678.98
2022-12-05T03:49:39.133Z,99685.8
2022-12-05T03:50:43.209Z,99682.19
2022-12-05T03:51:47.287Z,99685.66
2022-12-05T03:53:20.535Z,99689.45
2022-12-05T03:54:24.959Z,99696.8
2022-12-05T03:55:29.056Z,99687.37
2022-12-05T03:56:33.122Z,99683.32
2022-12-05T03:57:37.193Z,99682.5
2022-12-05T03:58:41.300Z,99680.53
2022-12-05T03:59:45.389Z,99684.7
2022-12-05T04:00:49.515Z,99686.45
2022-12-05T04:01:53.760Z,99681.73
2022-12-05T04:02:58.051Z,99684.53
2022-12-05T04:04:02.236Z,99676.7
2022-12-05T04:05:06.319Z,99674.03
2022-12-05T04:06:10.407Z,99681.36
2022-12-05T04:07:14.468Z,99676.63
2022-12-05T04:08:18.795Z,99676.94
2022-12-05T04:09:23.015Z,99674.22
2022-12-05T04:10:27.097Z,99691.61
2022-12-05T04:11:31.173Z,99679.02
2022-12-05T04:12:35.232Z,99669.52
2022-12-05T04:13:39.369Z,99670.86
2022-12-05T04:14:43.488Z,99667.43
2022-12-05T04:15:47.665Z,99662.73
2022-12-05T04:16:51.869Z,99667.5
2022-12-05T04:17:56.034Z,99668.42
2022-12-05T04:19:00.097Z,99667.58
2022-12-05T04:20:04.191Z,99663.48
2022-12-05T04:21:08.246Z,99675.02
2022-12-05T04:22:12.330Z,99682.25
2022-12-05T04:23:16.399Z,99683.59
2022-12-05T04:24:20.475Z,99678.41
2022-12-05T04:25:24.550Z,99672.34
2022-12-05T04:26:28.621Z,99675.11
2022-12-05T04:27:32.713Z,99676.75
2022-12-05T04:28:36.797Z,99678.69
2022-12-05T04:29:40.900Z,99679.66
2022-12-05T04:30:45.144Z,99679.77
2022-12-05T04:31:49.340Z,99671.72
2022-12-05T04:32:53.425Z,99675.75
2022-12-05T04:33:57.480Z,99669.45
2022-12-05T04:35:01.570Z,99667.36
2022-12-05T04:36:05.664Z,99672.47
2022-12-05T04:37:09.733Z,99670.08
2022-12-05T04:38:13.801Z,99670.61
2022-12-05T04:39:19.434Z,99662.55
2022-12-05T04:40:23.500Z,99673.7
2022-12-05T04:41:27.584Z,99663.59
2022-12-05T04:42:31.669Z,99662.86
2022-12-05T04:43:35.730Z,99654.92
2022-12-05T04:44:39.832Z,99657.3
2022-12-05T04:45:43.895Z,99665.09
2022-12-05T04:46:48.168Z,99665.35
2022-12-05T04:47:52.408Z,99662.16
2022-12-05T04:48:56.458Z,99664.02
2022-12-05T04:50:00.966Z,99659.47
2022-12-05T04:51:05.020Z,99661.66
2022-12-05T04:52:09.089Z,99650.67
2022-12-05T04:53:13.162Z,99654.62
2022-12-05T04:54:17.223Z,99643.63
2022-12-05T04:55:21.270Z,99639.08
2022-12-05T04:56:25.322Z,99646.57
2022-12-05T04:57:29.436Z,99635.09
2022-12-05T04:58:33.507Z,99640.91
2022-12-05T04:59:37.574Z,99644.03
2022-12-05T05:00:41.644Z,99642.59
2022-12-05T05:01:46.038Z,99641.24
2022-12-05T05:02:50.365Z,99643.85
2022-12-05T05:03:54.625Z,99639.08
2022-12-05T05:04:58.695Z,99637.78
2022-12-05T05:06:02.752Z,99630.84
2022-12-05T05:07:06.819Z,99620.16
2022-12-05T05:08:11.111Z,99624.81
2022-12-05T05:09:15.281Z,99620.97
2022-12-05T05:10:19.362Z,99625.7
2022-12-05T05:11:23.438Z,99623.96
2022-12-05T05:12:27.522Z,99623.14
2022-12-05T05:13:31.599Z,99632.9
2022-12-05T05:14:35.673Z,99631.03
2022-12-05T05:15:39.914Z,99626.34
2022-12-05T05:16:44.053Z,99623.22
2022-12-05T05:17:48.122Z,99624.44
2022-12-05T05:18:52.260Z,99628.98
2022-12-05T05:19:56.946Z,99632.38
2022-12-05T05:21:01.385Z,99623.81
2022-12-05T05:22:05.465Z,99613.37
2022-12-05T05:23:09.555Z,99625.38
2022-12-05T05:24:13.629Z,99628.8
2022-12-05T05:25:17.709Z,99630.73
2022-12-05T05:26:21.785Z,99623.4
2022-12-05T05:27:25.862Z,99638.53
2022-12-05T05:28:29.933Z,99633.53
2022-12-05T05:29:34.043Z,99638.67
2022-12-05T05:30:38.167Z,99634.57
2022-12-05T05:31:42.671Z,99628.61
2022-12-05T05:32:46.886Z,99624.81
2022-12-05T05:33:50.976Z,99619.66
2022-12-05T05:34:55.073Z,99607.48
2022-12-05T05:35:59.145Z,99602.72
2022-12-05T05:37:03.287Z,99615.13
2022-12-05T05:38:07.368Z,99614.52
2022-12-05T05:39:11.437Z,99615.13
2022-12-05T05:40:15.531Z,99633.01
2022-12-05T05:41:19.623Z,99630.1
2022-12-05T05:42:23.687Z,99631.26
2022-12-05T05:43:27.769Z,99631.11
2022-12-05T05:44:31.854Z,99626.56
2022-12-05T05:45:35.913Z,99630.84
2022-12-05T05:46:40.209Z,99641.5
2022-12-05T05:47:44.400Z,99637.33
2022-12-05T05:48:48.482Z,99639.42
2022-12-05T05:49:52.548Z,99634.87
2022-12-05T05:50:56.642Z,99639.19
2022-12-05T05:52:00.782Z,99629.84
2022-12-05T05:53:04.836Z,99629.66
2022-12-05T05:54:08.886Z,99622.5
2022-12-05T05:55:12.965Z,99624.7
2022-12-05T05:56:22.392Z,99626.98
2022-12-05T05:57:26.526Z,99613.48
2022-12-05T05:58:30.617Z,99623.44
2022-12-05T05:59:34.664Z,99622.99
2022-12-05T06:00:38.739Z,99631.34
2022-12-05T06:01:42.832Z,99626.97
2022-12-05T06:02:47.109Z,99627.16
2022-12-05T06:03:52.132Z,99628.73
2022-12-05T06:04:56.489Z,99625.92
2022-12-05T06:06:00.572Z,99603.12
2022-12-05T06:07:04.718Z,99630.77
2022-12-05T06:08:09.116Z,99628.69
2022-12-05T06:09:13.468Z,99627.64
2022-12-05T06:10:17.546Z,99621.45
2022-12-05T06:11:27.187Z,99628.76
2022-12-05T06:12:31.405Z,99634.3
2022-12-05T06:13:35.496Z,99636.17
2022-12-05T06:14:39.580Z,99624.58
2022-12-05T06:15:43.639Z,99624.7
2022-12-05T06:16:47.859Z,99625.32
2022-12-05T06:17:52.011Z,99621.48
2022-12-05T06:18:56.082Z,99625.51
2022-12-05T06:20:00.818Z,99629.3
2022-12-05T06:21:05.066Z,99630.31
2022-12-05T06:22:09.221Z,99627.73
2022-12-05T06:23:13.296Z,99623.91
2022-12-05T06:24:17.370Z,99619.53
2022-12-05T06:25:21.479Z,99622.86
2022-12-05T06:26:25.568Z,99626.69
2022-12-05T06:27:29.654Z,99625.95
2022-12-05T06:28:33.751Z,99632.66
2022-12-05T06:29:37.875Z,99634.17
2022-12-05T06:30:41.949Z,99636.86
2022-12-05T06:31:46.208Z,99638.2
2022-12-05T06:32:50.472Z,99633.43
2022-12-05T06:33:54.577Z,99639.01
2022-12-05T06:34:58.663Z,99640.42
2022-12-05T06:36:02.736Z,99631.22
2022-12-05T06:37:06.808Z,99640.61
2022-12-05T06:38:10.886Z,99640.83
2022-12-05T06:39:14.992Z,99641.31
2022-12-05T06:40:19.051Z,99642.77
2022-12-05T06:41:23.138Z,99636.91
2022-12-05T06:42:27.213Z,99636.38
2022-12-05T06:43:31.297Z,99646.14
2022-12-05T06:44:35.405Z,99639.11
2022-12-05T06:45:39.602Z,99646.84
2022-12-05T06:46:43.763Z,99643.31
2022-12-05T06:47:47.838Z,99640.39
2022-12-05T06:48:51.902Z,99639.92
2022-12-05T06:49:56.662Z,99631.5
2022-12-05T06:51:01.345Z,99634.73
2022-12-05T06:52:05.485Z,99637.61
2022-12-05T06:53:09.572Z,99635.63
2022-12-05T06:54:13.654Z,99633.06
2022-12-05T06:55:17.755Z,99637.67
2022-12-05T06:56:21.820Z,99637.3
2022-12-05T06:57:25.897Z,99641.33
2022-12-05T06:58:29.970Z,99619.48
2022-12-05T06:59:34.021Z,99636.55
2022-12-05T07:00:38.276Z,99636.63
2022-12-05T07:01:43.277Z,99631.33
2022-12-05T07:02:47.871Z,99641.58
2022-12-05T07:03:52.111Z,99635.28
2022-12-05T07:04:56.183Z,99643.96
2022-12-05T07:06:00.268Z,99637.44
2022-12-05T07:07:04.358Z,99639.71
2022-12-05T07:08:08.629Z,99642.16
2022-12-05T07:09:12.787Z,99629.17
2022-12-05T07:10:16.851Z,99631.06
2022-12-05T07:11:20.942Z,99640.08
2022-12-05T07:12:25.013Z,99586
2022-12-05T07:13:29.122Z,99629.83
2022-12-05T07:14:49.794Z,99641.11
2022-12-05T07:15:54.260Z,99634.9
2022-12-05T07:16:58.535Z,99634.08
2022-12-05T07:18:02.786Z,99638.2
2022-12-05T07:19:06.856Z,99640.44
2022-12-05T07:20:10.973Z,99640.96
2022-12-05T07:21:15.897Z,99630.82
2022-12-05T07:22:20.086Z,99622.45
2022-12-05T07:23:24.149Z,99626.16
2022-12-05T07:24:28.204Z,99627.52
2022-12-05T07:25:32.440Z,99628.84
2022-12-05T07:26:36.524Z,99633.09
2022-12-05T07:27:40.611Z,99624.61
2022-12-05T07:28:44.688Z,99621.06
2022-12-05T07:29:48.761Z,99583.39
2022-12-05T07:30:52.817Z,99633.69
2022-12-05T07:31:57.099Z,99623.48
2022-12-05T07:33:01.317Z,99634.05
2022-12-05T07:34:05.388Z,99625.38
2022-12-05T07:35:09.466Z,99617.44
2022-12-05T07:36:13.692Z,99631.55
2022-12-05T07:37:17.809Z,99638.06
2022-12-05T07:38:21.891Z,99631.99
2022-12-05T07:39:25.968Z,99625.42
2022-12-05T07:40:30.066Z,99627.53
2022-12-05T07:41:34.183Z,99629.91
2022-12-05T07:42:38.263Z,99628.34
2022-12-05T07:43:42.368Z,99630.91
2022-12-05T07:44:46.448Z,99621.59
2022-12-05T07:45:50.650Z,99627.41
2022-12-05T07:46:54.854Z,99617.01
2022-12-05T07:47:59.146Z,99631.12
2022-12-05T07:49:03.478Z,99632.95
2022-12-05T07:50:07.541Z,99632.54
2022-12-05T07:51:11.621Z,99632.56
2022-12-05T07:52:15.733Z,99628.31
2022-12-05T07:53:19.847Z,99623.27
2022-12-05T07:54:23.921Z,99630.89
2022-12-05T07:55:28.015Z,99629.55
2022-12-05T07:56:32.067Z,99629.3
2022-12-05T07:57:36.148Z,99622.59
2022-12-05T07:58:40.235Z,99621.59
2022-12-05T07:59:44.326Z,99627.52
2022-12-05T08:00:48.538Z,99627.39
2022-12-05T08:01:53.035Z,99629.7
2022-12-05T08:02:57.482Z,99630.63
2022-12-05T08:04:01.672Z,99637.81
2022-12-05T08:05:05.761Z,99631.53
2022-12-05T08:06:09.853Z,99628.37
2022-12-05T08:07:13.972Z,99624.42
2022-12-05T08:08:18.369Z,99627.52
2022-12-05T08:09:22.612Z,99627.57
2022-12-05T08:10:26.820Z,99629.38
2022-12-05T08:11:30.885Z,99626.39
2022-12-05T08:12:34.948Z,99620.28
2022-12-05T08:13:39.021Z,99629.25
2022-12-05T08:14:43.153Z,99617.05
2022-12-05T08:15:47.236Z,99629.42
2022-12-05T08:16:51.560Z,99630.25
2022-12-05T08:17:55.777Z,99629.84
2022-12-05T08:18:59.848Z,99632.63
2022-12-05T08:20:03.950Z,99633.78
2022-12-05T08:21:08.019Z,99633.55
2022-12-05T08:22:12.124Z,99634.38
2022-12-05T08:23:16.202Z,99631.23
2022-12-05T08:24:20.258Z,99629.56
2022-12-05T08:25:24.368Z,99626.16
2022-12-05T08:26:28.434Z,99635.25
2022-12-05T08:27:32.501Z,99631.05
2022-12-05T08:28:36.558Z,99627.52
2022-12-05T08:29:40.638Z,99638.68
2022-12-05T08:30:44.860Z,99641.84
2022-12-05T08:31:49.284Z,99644.22
2022-12-05T08:32:53.370Z,99648.31
2022-12-05T08:34:00.326Z,99642.13
2022-12-05T08:35:04.437Z,99643.58
2022-12-05T08:36:08.504Z,99642.7
2022-12-05T08:37:12.597Z,99639.17
2022-12-05T08:38:16.703Z,99639.69
2022-12-05T08:39:20.769Z,99646.49
2022-12-05T08:40:24.872Z,99657.56
2022-12-05T08:41:29.084Z,99656.09
2022-12-05T08:42:33.501Z,99601.91
2022-12-05T08:43:37.571Z,99648.88
2022-12-05T08:44:41.692Z,99653.42
2022-12-05T08:45:45.891Z,99647.13
2022-12-05T08:46:50.092Z,99652.44
2022-12-05T08:47:54.175Z,99662.45
2022-12-05T08:48:58.247Z,99656
2022-12-05T08:50:02.374Z,99655.89
2022-12-05T08:51:06.453Z,99660.34
2022-12-05T08:52:10.535Z,99650.45
2022-12-05T08:53:14.598Z,99648.48
2022-12-05T08:54:18.720Z,99643.13
2022-12-05T08:55:22.804Z,99648.42
2022-12-05T08:56:28.382Z,99652.67
2022-12-05T08:57:32.461Z,99653.37
2022-12-05T08:58:36.543Z,99652.03
2022-12-05T08:59:40.602Z,99644.46
2022-12-05T09:00:44.679Z,99638.28
2022-12-05T09:01:48.831Z,99640.73
2022-12-05T09:02:53.240Z,99654.38
2022-12-05T09:03:57.459Z,99644.07
2022-12-05T09:05:28.034Z,99640.52
2022-12-05T09:06:33.279Z,99644.69
2022-12-05T09:07:37.525Z,99642.09
2022-12-05T09:08:41.739Z,99636.84
2022-12-05T09:09:45.824Z,99632.48
2022-12-05T09:10:49.920Z,99632.02
2022-12-05T09:11:53.989Z,99640.11
2022-12-05T09:12:58.058Z,99642.37
2022-12-05T09:14:02.141Z,99641.45
2022-12-05T09:15:06.210Z,99640.16
2022-12-05T09:16:10.545Z,99644.23
2022-12-05T09:17:14.774Z,99640.34
2022-12-05T09:18:18.860Z,99641.22
2022-12-05T09:19:22.945Z,99636.97
2022-12-05T09:20:27.080Z,99645.75
2022-12-05T09:21:31.170Z,99639.98
2022-12-05T09:22:35.269Z,99638.23
2022-12-05T09:23:39.355Z,99626.25
2022-12-05T09:24:43.463Z,99620.44
2022-12-05T09:25:47.566Z,99617.97
2022-12-05T09:26:51.635Z,99618.38
2022-12-05T09:27:55.704Z,99615.3
2022-12-05T09:28:59.949Z,99625.09
2022-12-05T09:30:04.272Z,99619.02
2022-12-05T09:31:08.575Z,99614.48
2022-12-05T09:32:12.757Z,99612.37
2022-12-05T09:33:16.812Z,99622.22
2022-12-05T09:34:20.932Z,99618.27
2022-12-05T09:35:25.016Z,99613.72
2022-12-05T09:36:29.132Z,99615.3
2022-12-05T09:37:41.234Z,99628.16
2022-12-05T09:38:45.308Z,99621.06
2022-12-05T09:39:49.392Z,99619.61
2022-12-05T09:40:59.123Z,99616.3
2022-12-05T09:42:03.292Z,99584.05
2022-12-05T09:43:07.445Z,99609.94
2022-12-05T09:44:11.551Z,99616.98
2022-12-05T09:45:15.618Z,99613.95
2022-12-05T09:46:19.805Z,99609.53
2022-12-05T09:47:24.218Z,99614.53
2022-12-05T09:48:28.372Z,99610
2022-12-05T09:49:32.490Z,99607.37
2022-12-05T09:50:36.599Z,99612.13
2022-12-05T09:51:40.711Z,99604.03
2022-12-05T09:52:44.805Z,99602.59
2022-12-05T09:53:48.874Z,99596.52
2022-12-05T09:54:52.990Z,99601.06
2022-12-05T09:55:57.090Z,99600.94
2022-12-05T09:57:01.214Z,99601.09
2022-12-05T09:58:05.302Z,99601.31
2022-12-05T09:59:09.504Z,99597.16
2022-12-05T10:00:13.583Z,99593.78
2022-12-05T10:01:18.180Z,99592.05
2022-12-05T10:02:24.775Z,99589.76
2022-12-05T10:03:28.915Z,99590.93
2022-12-05T10:04:33.279Z,99593.34
2022-12-05T10:05:37.516Z,99589.52
2022-12-05T10:06:41.619Z,99588.41
